Spar Draco — LAFO6 — position and weather

sailwx.info

Track history (hours):
 
Tides and Currents Weather Stations Pressure Air Temp Water Temp Dewpoint Dewpoint Depression Visibility Wind Speed Wind Dir Waves Ship Positions

Spar Draco

Last reported at 2017-Aug-31 14:14 UTC. Time now 2017-Sep-26 16:43 UTC.
Position N 01°15' E 104°02'.
Warning: this ship's position is 26 days out of date.

Length 190 m; draft 10.9 m.

Type: Cargo ship. MMSI: 257799000.

Date/timePositionNaut miles runAvg speedWind from/ knotsBaromVisibWave heightAir tempDewpointWater temp
2017-Aug-31 14:14N 01°15' E 104°02'310.8
2017-Aug-31 13:56N 01°14' E 103°59'2 5.2
2017-Aug-31 13:31N 01°16' E 103°57'1 2.6
2017-Aug-31 13:01N 01°17' E 103°58'0 0.0
2017-Aug-31 12:29N 01°17' E 103°58'0 0.1
2017-Aug-31 11:29N 01°17' E 103°57'0 0.2
2017-Aug-31 10:42N 01°17' E 103°57'0 0.3
2017-Aug-31 10:30N 01°17' E 103°57'0 0.0
2017-Aug-31 09:59N 01°17' E 103°57'0 0.0
2017-Aug-31 07:21N 01°17' E 103°57'0 0.0
2017-Aug-31 06:55N 01°17' E 103°57'0 0.0
2017-Aug-31 06:28N 01°17' E 103°57'0 0.1
2017-Aug-31 06:00N 01°17' E 103°57'0 0.1
2017-Aug-31 05:26N 01°17' E 103°57'0 0.0
2017-Aug-31 04:55N 01°17' E 103°57'0 0.0
2017-Aug-31 04:29N 01°17' E 103°57'0 0.1
2017-Aug-31 03:56N 01°17' E 103°57'0 0.0
2017-Aug-31 03:29N 01°17' E 103°57'0 0.1
2017-Aug-31 03:00N 01°17' E 103°57'1 1.5
2017-Aug-31 02:26N 01°16' E 103°57'2 3.7
2017-Aug-31 01:58N 01°16' E 103°59'2 4.8
2017-Aug-31 01:29N 01°14' E 103°57'4 8.3
2017-Aug-31 01:00N 01°12' E 103°54'4 8.3
2017-Aug-31 00:30N 01°11' E 103°50'4 8.6
2017-Aug-31 00:00N 01°08' E 103°46'4 7.8
2017-Aug-30 23:30N 01°06' E 103°44'4 7.9
2017-Aug-30 23:00N 01°03' E 103°40'5 9.4
2017-Aug-30 22:30N 01°04' E 103°36'611.1
2017-Aug-30 22:00N 01°07' E 103°31'612.8
2017-Aug-30 21:30N 01°10' E 103°26'712.8
2017-Aug-30 20:59N 01°15' E 103°21'  
Track history (hours):
 
Tides and Currents Weather Stations Pressure Air Temp Water Temp Dewpoint Dewpoint Depression Visibility Wind Speed Wind Dir Waves Ship Positions

Spar Draco

Last reported at 2017-Aug-31 14:14 UTC. Time now 2017-Sep-26 16:43 UTC.
Position N 01°15' E 104°02'.
Warning: this ship's position is 26 days out of date.

Length 190 m; draft 10.9 m.

Type: Cargo ship. MMSI: 257799000.

Date/timePositionNaut miles runAvg speedWind from/ knotsBaromVisibWave heightAir tempDewpointWater temp
2017-Aug-31 14:14N 01°15' E 104°02'310.8
2017-Aug-31 13:56N 01°14' E 103°59'2 5.2
2017-Aug-31 13:31N 01°16' E 103°57'1 2.6
2017-Aug-31 13:01N 01°17' E 103°58'0 0.0
2017-Aug-31 12:29N 01°17' E 103°58'0 0.1
2017-Aug-31 11:29N 01°17' E 103°57'0 0.2
2017-Aug-31 10:42N 01°17' E 103°57'0 0.3
2017-Aug-31 10:30N 01°17' E 103°57'0 0.0
2017-Aug-31 09:59N 01°17' E 103°57'0 0.0
2017-Aug-31 07:21N 01°17' E 103°57'0 0.0
2017-Aug-31 06:55N 01°17' E 103°57'0 0.0
2017-Aug-31 06:28N 01°17' E 103°57'0 0.1
2017-Aug-31 06:00N 01°17' E 103°57'0 0.1
2017-Aug-31 05:26N 01°17' E 103°57'0 0.0
2017-Aug-31 04:55N 01°17' E 103°57'0 0.0
2017-Aug-31 04:29N 01°17' E 103°57'0 0.1
2017-Aug-31 03:56N 01°17' E 103°57'0 0.0
2017-Aug-31 03:29N 01°17' E 103°57'0 0.1
2017-Aug-31 03:00N 01°17' E 103°57'1 1.5
2017-Aug-31 02:26N 01°16' E 103°57'2 3.7
2017-Aug-31 01:58N 01°16' E 103°59'2 4.8
2017-Aug-31 01:29N 01°14' E 103°57'4 8.3
2017-Aug-31 01:00N 01°12' E 103°54'4 8.3
2017-Aug-31 00:30N 01°11' E 103°50'4 8.6
2017-Aug-31 00:00N 01°08' E 103°46'4 7.8
2017-Aug-30 23:30N 01°06' E 103°44'4 7.9
2017-Aug-30 23:00N 01°03' E 103°40'5 9.4
2017-Aug-30 22:30N 01°04' E 103°36'611.1
2017-Aug-30 22:00N 01°07' E 103°31'612.8
2017-Aug-30 21:30N 01°10' E 103°26'712.8
2017-Aug-30 20:59N 01°15' E 103°21'  

Dump ship's entire track history